Terminal Aerodrome Forecast
Issued by NWS

Home | Current Version | Previous Version | Text Only | Print | Product List | Glossary Off
Versions: 1 2 3 4 5 6 7 8 9 10 11 12 13 14 15 16 17 18 19 20 21 22 23 24

000
FTUS43 KMPX 211136
TAFRNH
TAF
KRNH 211136Z 2112/2212 12007KT P6SM SCT020 BKN040 OVC080
     FM211400 15007KT P6SM SCT040 BKN250
     FM212000 21007KT P6SM SCT040 BKN250
     FM220200 VRB03KT P6SM SCT250=

USA.gov is the U.S. government's official web portal to all federal, state and local government web resources and services.